sensor_id;sensor_type;location;lat;lon;timestamp;pressure;altitude;pressure_sealevel;temperature
64790;BMP280;51223;51.816;5.862;2022-08-19T00:01:51;101321.81;;;24.54
64790;BMP280;51223;51.816;5.862;2022-08-19T00:04:19;101320.00;;;24.40
64790;BMP280;51223;51.816;5.862;2022-08-19T00:06:46;101306.97;;;24.44
64790;BMP280;51223;51.816;5.862;2022-08-19T00:09:14;101312.94;;;24.29
64790;BMP280;51223;51.816;5.862;2022-08-19T00:11:41;101315.31;;;24.37
64790;BMP280;51223;51.816;5.862;2022-08-19T00:14:09;101315.53;;;24.05
64790;BMP280;51223;51.816;5.862;2022-08-19T00:16:37;101314.69;;;23.82
64790;BMP280;51223;51.816;5.862;2022-08-19T00:19:03;101316.78;;;23.88
64790;BMP280;51223;51.816;5.862;2022-08-19T00:21:29;101318.91;;;24.04
64790;BMP280;51223;51.816;5.862;2022-08-19T00:23:56;101310.59;;;24.33
64790;BMP280;51223;51.816;5.862;2022-08-19T00:26:27;101313.22;;;24.09
64790;BMP280;51223;51.816;5.862;2022-08-19T00:28:53;101315.28;;;24.14
64790;BMP280;51223;51.816;5.862;2022-08-19T00:31:19;101313.97;;;24.04
64790;BMP280;51223;51.816;5.862;2022-08-19T00:33:46;101314.50;;;24.19
64790;BMP280;51223;51.816;5.862;2022-08-19T00:36:13;101310.59;;;24.39
64790;BMP280;51223;51.816;5.862;2022-08-19T00:38:39;101307.47;;;24.54
64790;BMP280;51223;51.816;5.862;2022-08-19T00:41:16;101315.03;;;24.46
64790;BMP280;51223;51.816;5.862;2022-08-19T00:43:43;101311.38;;;24.28
64790;BMP280;51223;51.816;5.862;2022-08-19T00:46:21;101311.38;;;23.95
64790;BMP280;51223;51.816;5.862;2022-08-19T00:48:47;101312.38;;;23.81
64790;BMP280;51223;51.816;5.862;2022-08-19T00:51:13;101319.69;;;24.04
64790;BMP280;51223;51.816;5.862;2022-08-19T00:53:38;101317.06;;;23.84
64790;BMP280;51223;51.816;5.862;2022-08-19T00:56:05;101311.47;;;22.99
64790;BMP280;51223;51.816;5.862;2022-08-19T00:58:34;101309.59;;;22.90
64790;BMP280;51223;51.816;5.862;2022-08-19T01:01:02;101313.31;;;23.08
64790;BMP280;51223;51.816;5.862;2022-08-19T01:03:28;101315.31;;;23.33
64790;BMP280;51223;51.816;5.862;2022-08-19T01:05:55;101316.25;;;23.78
64790;BMP280;51223;51.816;5.862;2022-08-19T01:08:22;101308.47;;;23.84
64790;BMP280;51223;51.816;5.862;2022-08-19T01:10:51;101312.47;;;23.33
64790;BMP280;51223;51.816;5.862;2022-08-19T01:13:22;101318.28;;;23.55
64790;BMP280;51223;51.816;5.862;2022-08-19T01:15:55;101317.47;;;23.55
64790;BMP280;51223;51.816;5.862;2022-08-19T01:18:22;101317.28;;;23.69
64790;BMP280;51223;51.816;5.862;2022-08-19T01:20:50;101317.41;;;23.32
64790;BMP280;51223;51.816;5.862;2022-08-19T01:23:17;101313.88;;;23.65
64790;BMP280;51223;51.816;5.862;2022-08-19T01:25:49;101324.44;;;23.43
64790;BMP280;51223;51.816;5.862;2022-08-19T01:28:26;101326.34;;;23.57
64790;BMP280;51223;51.816;5.862;2022-08-19T01:30:52;101325.31;;;23.60
64790;BMP280;51223;51.816;5.862;2022-08-19T01:33:19;101322.38;;;22.95
64790;BMP280;51223;51.816;5.862;2022-08-19T01:35:46;101308.47;;;23.19
64790;BMP280;51223;51.816;5.862;2022-08-19T01:38:22;101310.66;;;23.41
64790;BMP280;51223;51.816;5.862;2022-08-19T01:40:49;101312.75;;;23.41
64790;BMP280;51223;51.816;5.862;2022-08-19T01:43:15;101319.38;;;23.15
64790;BMP280;51223;51.816;5.862;2022-08-19T01:45:41;101320.59;;;23.51
64790;BMP280;51223;51.816;5.862;2022-08-19T01:48:07;101316.69;;;23.54
64790;BMP280;51223;51.816;5.862;2022-08-19T01:50:34;101321.34;;;22.92
64790;BMP280;51223;51.816;5.862;2022-08-19T01:53:02;101328.19;;;23.12
64790;BMP280;51223;51.816;5.862;2022-08-19T01:55:29;101323.41;;;23.46
64790;BMP280;51223;51.816;5.862;2022-08-19T01:57:58;101327.59;;;23.50
64790;BMP280;51223;51.816;5.862;2022-08-19T02:00:28;101329.63;;;23.38
64790;BMP280;51223;51.816;5.862;2022-08-19T02:02:55;101329.81;;;23.18
64790;BMP280;51223;51.816;5.862;2022-08-19T02:05:20;101332.53;;;23.44
64790;BMP280;51223;51.816;5.862;2022-08-19T02:07:47;101343.56;;;23.68
64790;BMP280;51223;51.816;5.862;2022-08-19T02:10:16;101332.09;;;23.68
64790;BMP280;51223;51.816;5.862;2022-08-19T02:12:43;101342.94;;;23.47
64790;BMP280;51223;51.816;5.862;2022-08-19T02:15:09;101339.31;;;23.47
64790;BMP280;51223;51.816;5.862;2022-08-19T02:17:35;101333.66;;;23.58
64790;BMP280;51223;51.816;5.862;2022-08-19T02:20:02;101339.06;;;23.02
64790;BMP280;51223;51.816;5.862;2022-08-19T02:22:28;101336.06;;;22.80
64790;BMP280;51223;51.816;5.862;2022-08-19T02:24:54;101342.38;;;23.37
64790;BMP280;51223;51.816;5.862;2022-08-19T02:27:21;101337.69;;;23.34
64790;BMP280;51223;51.816;5.862;2022-08-19T02:29:48;101340.34;;;23.01
64790;BMP280;51223;51.816;5.862;2022-08-19T02:32:15;101334.38;;;22.68
64790;BMP280;51223;51.816;5.862;2022-08-19T02:34:41;101336.53;;;23.15
64790;BMP280;51223;51.816;5.862;2022-08-19T02:37:07;101336.00;;;23.11
64790;BMP280;51223;51.816;5.862;2022-08-19T02:39:53;101335.59;;;23.35
64790;BMP280;51223;51.816;5.862;2022-08-19T02:42:18;101343.16;;;23.32
64790;BMP280;51223;51.816;5.862;2022-08-19T02:44:44;101338.75;;;23.37
64790;BMP280;51223;51.816;5.862;2022-08-19T02:47:10;101336.88;;;22.86
64790;BMP280;51223;51.816;5.862;2022-08-19T02:49:36;101343.69;;;22.63
64790;BMP280;51223;51.816;5.862;2022-08-19T02:52:02;101347.25;;;22.83
64790;BMP280;51223;51.816;5.862;2022-08-19T02:54:28;101344.97;;;22.87
64790;BMP280;51223;51.816;5.862;2022-08-19T02:56:54;101352.47;;;23.22
64790;BMP280;51223;51.816;5.862;2022-08-19T02:59:20;101350.19;;;22.95
64790;BMP280;51223;51.816;5.862;2022-08-19T03:01:46;101342.19;;;23.04
64790;BMP280;51223;51.816;5.862;2022-08-19T03:04:14;101350.72;;;23.35
64790;BMP280;51223;51.816;5.862;2022-08-19T03:06:43;101345.03;;;23.47
64790;BMP280;51223;51.816;5.862;2022-08-19T03:09:10;101340.34;;;22.64
64790;BMP280;51223;51.816;5.862;2022-08-19T03:11:36;101339.38;;;22.41
64790;BMP280;51223;51.816;5.862;2022-08-19T03:14:03;101332.41;;;23.16
64790;BMP280;51223;51.816;5.862;2022-08-19T03:16:33;101345.38;;;22.43
64790;BMP280;51223;51.816;5.862;2022-08-19T03:19:00;101341.06;;;21.82
64790;BMP280;51223;51.816;5.862;2022-08-19T03:21:31;101344.78;;;22.65
64790;BMP280;51223;51.816;5.862;2022-08-19T03:23:58;101347.81;;;22.56
64790;BMP280;51223;51.816;5.862;2022-08-19T03:26:25;101344.16;;;22.87
64790;BMP280;51223;51.816;5.862;2022-08-19T03:28:51;101347.75;;;22.76
64790;BMP280;51223;51.816;5.862;2022-08-19T03:31:20;101349.22;;;22.72
64790;BMP280;51223;51.816;5.862;2022-08-19T03:33:48;101354.34;;;22.93
64790;BMP280;51223;51.816;5.862;2022-08-19T03:36:17;101351.38;;;22.20
64790;BMP280;51223;51.816;5.862;2022-08-19T03:38:53;101344.22;;;22.61
64790;BMP280;51223;51.816;5.862;2022-08-19T03:41:41;101346.66;;;22.74
64790;BMP280;51223;51.816;5.862;2022-08-19T03:44:07;101350.50;;;23.02
64790;BMP280;51223;51.816;5.862;2022-08-19T03:46:34;101352.19;;;22.77
64790;BMP280;51223;51.816;5.862;2022-08-19T03:49:02;101355.34;;;22.54
64790;BMP280;51223;51.816;5.862;2022-08-19T03:51:36;101347.44;;;22.74
64790;BMP280;51223;51.816;5.862;2022-08-19T03:54:04;101352.19;;;22.83
64790;BMP280;51223;51.816;5.862;2022-08-19T03:56:30;101352.75;;;22.30
64790;BMP280;51223;51.816;5.862;2022-08-19T03:58:57;101354.31;;;22.57
64790;BMP280;51223;51.816;5.862;2022-08-19T04:01:26;101356.66;;;22.32
64790;BMP280;51223;51.816;5.862;2022-08-19T04:03:53;101354.59;;;22.33
64790;BMP280;51223;51.816;5.862;2022-08-19T04:06:21;101350.91;;;22.53
64790;BMP280;51223;51.816;5.862;2022-08-19T04:08:49;101344.56;;;22.17
64790;BMP280;51223;51.816;5.862;2022-08-19T04:11:31;101342.97;;;22.68
64790;BMP280;51223;51.816;5.862;2022-08-19T04:13:57;101343.31;;;22.75
64790;BMP280;51223;51.816;5.862;2022-08-19T04:16:27;101345.59;;;22.40
64790;BMP280;51223;51.816;5.862;2022-08-19T04:18:59;101331.72;;;22.27
64790;BMP280;51223;51.816;5.862;2022-08-19T04:21:26;101332.16;;;22.46
64790;BMP280;51223;51.816;5.862;2022-08-19T04:23:53;101334.94;;;22.40
64790;BMP280;51223;51.816;5.862;2022-08-19T04:26:25;101336.75;;;22.38
64790;BMP280;51223;51.816;5.862;2022-08-19T04:28:52;101336.41;;;22.30
64790;BMP280;51223;51.816;5.862;2022-08-19T04:31:21;101323.84;;;22.22
64790;BMP280;51223;51.816;5.862;2022-08-19T04:33:47;101320.91;;;22.11
64790;BMP280;51223;51.816;5.862;2022-08-19T04:36:17;101327.88;;;21.84
64790;BMP280;51223;51.816;5.862;2022-08-19T04:38:47;101320.13;;;21.90
64790;BMP280;51223;51.816;5.862;2022-08-19T04:41:13;101328.44;;;22.14
64790;BMP280;51223;51.816;5.862;2022-08-19T04:43:58;101320.66;;;22.40
64790;BMP280;51223;51.816;5.862;2022-08-19T04:46:24;101314.00;;;21.97
64790;BMP280;51223;51.816;5.862;2022-08-19T04:48:49;101315.31;;;22.54
64790;BMP280;51223;51.816;5.862;2022-08-19T04:51:15;101315.91;;;22.63
64790;BMP280;51223;51.816;5.862;2022-08-19T04:53:42;101320.19;;;22.16
64790;BMP280;51223;51.816;5.862;2022-08-19T04:56:11;101323.47;;;22.35
64790;BMP280;51223;51.816;5.862;2022-08-19T04:58:40;101323.13;;;22.27
64790;BMP280;51223;51.816;5.862;2022-08-19T05:01:19;101322.56;;;22.49
64790;BMP280;51223;51.816;5.862;2022-08-19T05:03:45;101330.34;;;22.49
64790;BMP280;51223;51.816;5.862;2022-08-19T05:06:13;101331.75;;;22.59
64790;BMP280;51223;51.816;5.862;2022-08-19T05:08:40;101337.56;;;22.44
64790;BMP280;51223;51.816;5.862;2022-08-19T05:11:17;101341.69;;;22.69
64790;BMP280;51223;51.816;5.862;2022-08-19T05:13:44;101337.97;;;22.63
64790;BMP280;51223;51.816;5.862;2022-08-19T05:16:12;101339.25;;;22.87
64790;BMP280;51223;51.816;5.862;2022-08-19T05:18:39;101347.03;;;22.87
64790;BMP280;51223;51.816;5.862;2022-08-19T05:21:25;101340.50;;;22.81
64790;BMP280;51223;51.816;5.862;2022-08-19T05:24:10;101340.81;;;22.94
64790;BMP280;51223;51.816;5.862;2022-08-19T05:26:37;101343.38;;;22.86
64790;BMP280;51223;51.816;5.862;2022-08-19T05:29:04;101351.94;;;22.81
64790;BMP280;51223;51.816;5.862;2022-08-19T05:31:30;101342.03;;;22.76
64790;BMP280;51223;51.816;5.862;2022-08-19T05:33:56;101348.59;;;22.57
64790;BMP280;51223;51.816;5.862;2022-08-19T05:36:26;101343.31;;;22.75
64790;BMP280;51223;51.816;5.862;2022-08-19T05:38:52;101350.47;;;22.97
64790;BMP280;51223;51.816;5.862;2022-08-19T05:41:19;101360.75;;;22.77
64790;BMP280;51223;51.816;5.862;2022-08-19T05:43:45;101360.59;;;22.61
64790;BMP280;51223;51.816;5.862;2022-08-19T05:46:18;101361.88;;;22.60
64790;BMP280;51223;51.816;5.862;2022-08-19T05:48:45;101353.41;;;22.39
64790;BMP280;51223;51.816;5.862;2022-08-19T05:51:11;101357.78;;;22.66
64790;BMP280;51223;51.816;5.862;2022-08-19T05:53:37;101358.28;;;22.65
64790;BMP280;51223;51.816;5.862;2022-08-19T05:56:13;101363.81;;;22.74
64790;BMP280;51223;51.816;5.862;2022-08-19T05:58:40;101365.94;;;22.79
64790;BMP280;51223;51.816;5.862;2022-08-19T06:01:16;101372.25;;;22.57
64790;BMP280;51223;51.816;5.862;2022-08-19T06:03:42;101371.28;;;22.97
64790;BMP280;51223;51.816;5.862;2022-08-19T06:06:12;101365.09;;;22.41
64790;BMP280;51223;51.816;5.862;2022-08-19T06:08:39;101368.34;;;21.83
64790;BMP280;51223;51.816;5.862;2022-08-19T06:11:22;101365.09;;;22.16
64790;BMP280;51223;51.816;5.862;2022-08-19T06:13:51;101369.63;;;22.02
64790;BMP280;51223;51.816;5.862;2022-08-19T06:16:19;101374.72;;;22.70
64790;BMP280;51223;51.816;5.862;2022-08-19T06:18:46;101374.91;;;22.92
64790;BMP280;51223;51.816;5.862;2022-08-19T06:21:12;101374.25;;;23.14
64790;BMP280;51223;51.816;5.862;2022-08-19T06:23:38;101370.78;;;23.04
64790;BMP280;51223;51.816;5.862;2022-08-19T06:26:05;101369.41;;;22.88
64790;BMP280;51223;51.816;5.862;2022-08-19T06:28:30;101371.72;;;23.21
64790;BMP280;51223;51.816;5.862;2022-08-19T06:30:58;101377.06;;;23.51
64790;BMP280;51223;51.816;5.862;2022-08-19T06:33:24;101377.28;;;23.42
64790;BMP280;51223;51.816;5.862;2022-08-19T06:35:50;101373.91;;;22.69
64790;BMP280;51223;51.816;5.862;2022-08-19T06:38:15;101369.66;;;23.22
64790;BMP280;51223;51.816;5.862;2022-08-19T06:40:41;101375.81;;;23.15
64790;BMP280;51223;51.816;5.862;2022-08-19T06:43:07;101380.13;;;22.99
64790;BMP280;51223;51.816;5.862;2022-08-19T06:45:33;101388.72;;;23.42
64790;BMP280;51223;51.816;5.862;2022-08-19T06:48:00;101384.06;;;22.39
64790;BMP280;51223;51.816;5.862;2022-08-19T06:50:25;101380.31;;;23.21
64790;BMP280;51223;51.816;5.862;2022-08-19T06:52:51;101379.75;;;23.71
64790;BMP280;51223;51.816;5.862;2022-08-19T06:55:17;101383.22;;;23.32
64790;BMP280;51223;51.816;5.862;2022-08-19T06:57:43;101381.06;;;22.54
64790;BMP280;51223;51.816;5.862;2022-08-19T07:00:10;101382.56;;;23.60
64790;BMP280;51223;51.816;5.862;2022-08-19T07:02:40;101377.81;;;23.46
64790;BMP280;51223;51.816;5.862;2022-08-19T07:05:06;101382.31;;;23.58
64790;BMP280;51223;51.816;5.862;2022-08-19T07:07:32;101364.00;;;24.14
64790;BMP280;51223;51.816;5.862;2022-08-19T07:09:59;101364.78;;;24.09
64790;BMP280;51223;51.816;5.862;2022-08-19T07:12:26;101373.59;;;23.95
64790;BMP280;51223;51.816;5.862;2022-08-19T07:14:53;101375.63;;;23.88
64790;BMP280;51223;51.816;5.862;2022-08-19T07:17:18;101382.34;;;23.63
64790;BMP280;51223;51.816;5.862;2022-08-19T07:19:45;101379.13;;;23.45
64790;BMP280;51223;51.816;5.862;2022-08-19T07:22:11;101376.00;;;24.63
64790;BMP280;51223;51.816;5.862;2022-08-19T07:24:37;101381.00;;;24.79
64790;BMP280;51223;51.816;5.862;2022-08-19T07:27:05;101395.56;;;24.64
64790;BMP280;51223;51.816;5.862;2022-08-19T07:29:33;101388.53;;;24.71
64790;BMP280;51223;51.816;5.862;2022-08-19T07:32:00;101394.00;;;24.47
64790;BMP280;51223;51.816;5.862;2022-08-19T07:34:28;101390.84;;;23.52
64790;BMP280;51223;51.816;5.862;2022-08-19T07:36:55;101394.66;;;23.86
64790;BMP280;51223;51.816;5.862;2022-08-19T07:39:24;101386.94;;;24.25
64790;BMP280;51223;51.816;5.862;2022-08-19T07:41:50;101399.25;;;24.76
64790;BMP280;51223;51.816;5.862;2022-08-19T07:44:18;101408.88;;;24.73
64790;BMP280;51223;51.816;5.862;2022-08-19T07:46:47;101401.03;;;24.57
64790;BMP280;51223;51.816;5.862;2022-08-19T07:49:14;101410.94;;;24.39
64790;BMP280;51223;51.816;5.862;2022-08-19T07:51:50;101417.53;;;23.75
64790;BMP280;51223;51.816;5.862;2022-08-19T07:54:16;101424.25;;;24.64
64790;BMP280;51223;51.816;5.862;2022-08-19T07:56:42;101422.97;;;24.93
64790;BMP280;51223;51.816;5.862;2022-08-19T07:59:08;101421.13;;;24.96
64790;BMP280;51223;51.816;5.862;2022-08-19T08:01:35;101421.66;;;24.61
64790;BMP280;51223;51.816;5.862;2022-08-19T08:04:00;101424.75;;;25.02
64790;BMP280;51223;51.816;5.862;2022-08-19T08:06:45;101415.88;;;25.27
64790;BMP280;51223;51.816;5.862;2022-08-19T08:09:34;101414.94;;;25.66
64790;BMP280;51223;51.816;5.862;2022-08-19T08:12:03;101412.75;;;25.83
64790;BMP280;51223;51.816;5.862;2022-08-19T08:14:52;101418.84;;;26.15
64790;BMP280;51223;51.816;5.862;2022-08-19T08:17:20;101420.63;;;25.77
64790;BMP280;51223;51.816;5.862;2022-08-19T08:19:47;101420.94;;;25.68
64790;BMP280;51223;51.816;5.862;2022-08-19T08:22:17;101425.97;;;25.45
64790;BMP280;51223;51.816;5.862;2022-08-19T08:25:18;101434.16;;;26.34
64790;BMP280;51223;51.816;5.862;2022-08-19T08:27:45;101425.53;;;25.13
64790;BMP280;51223;51.816;5.862;2022-08-19T08:30:18;101435.88;;;25.61
64790;BMP280;51223;51.816;5.862;2022-08-19T08:32:44;101446.38;;;25.99
64790;BMP280;51223;51.816;5.862;2022-08-19T08:35:13;101443.75;;;26.42
64790;BMP280;51223;51.816;5.862;2022-08-19T08:37:39;101444.84;;;24.91
64790;BMP280;51223;51.816;5.862;2022-08-19T08:40:14;101445.44;;;25.80
64790;BMP280;51223;51.816;5.862;2022-08-19T08:43:07;101440.38;;;26.38
64790;BMP280;51223;51.816;5.862;2022-08-19T08:45:42;101438.84;;;26.67
64790;BMP280;51223;51.816;5.862;2022-08-19T08:48:18;101434.34;;;26.71
64790;BMP280;51223;51.816;5.862;2022-08-19T08:50:47;101447.88;;;25.54
64790;BMP280;51223;51.816;5.862;2022-08-19T08:53:17;101439.53;;;25.61
64790;BMP280;51223;51.816;5.862;2022-08-19T08:55:44;101442.75;;;25.93
64790;BMP280;51223;51.816;5.862;2022-08-19T08:58:15;101441.25;;;26.27
64790;BMP280;51223;51.816;5.862;2022-08-19T09:00:47;101427.28;;;26.43
64790;BMP280;51223;51.816;5.862;2022-08-19T09:03:23;101436.38;;;26.82
64790;BMP280;51223;51.816;5.862;2022-08-19T09:05:58;101435.66;;;26.76
64790;BMP280;51223;51.816;5.862;2022-08-19T09:08:37;101434.16;;;26.64
64790;BMP280;51223;51.816;5.862;2022-08-19T09:11:08;101431.78;;;27.22
64790;BMP280;51223;51.816;5.862;2022-08-19T09:14:08;101427.72;;;27.30
64790;BMP280;51223;51.816;5.862;2022-08-19T09:16:29;101426.06;;;26.92
64790;BMP280;51223;51.816;5.862;2022-08-19T09:19:01;101421.50;;;27.02
64790;BMP280;51223;51.816;5.862;2022-08-19T09:21:28;101419.88;;;27.07
64790;BMP280;51223;51.816;5.862;2022-08-19T09:23:54;101421.69;;;27.53
64790;BMP280;51223;51.816;5.862;2022-08-19T09:26:23;101436.00;;;27.21
64790;BMP280;51223;51.816;5.862;2022-08-19T09:28:50;101429.81;;;26.52
64790;BMP280;51223;51.816;5.862;2022-08-19T09:31:20;101440.53;;;26.51
64790;BMP280;51223;51.816;5.862;2022-08-19T09:33:47;101437.53;;;27.65
64790;BMP280;51223;51.816;5.862;2022-08-19T09:36:15;101429.66;;;26.39
64790;BMP280;51223;51.816;5.862;2022-08-19T09:38:42;101431.78;;;26.33
64790;BMP280;51223;51.816;5.862;2022-08-19T09:41:10;101421.28;;;26.70
64790;BMP280;51223;51.816;5.862;2022-08-19T09:43:40;101433.53;;;26.06
64790;BMP280;51223;51.816;5.862;2022-08-19T09:46:07;101440.75;;;26.59
64790;BMP280;51223;51.816;5.862;2022-08-19T09:48:38;101444.66;;;27.40
64790;BMP280;51223;51.816;5.862;2022-08-19T09:51:09;101439.75;;;26.15
64790;BMP280;51223;51.816;5.862;2022-08-19T09:53:36;101445.66;;;25.82
64790;BMP280;51223;51.816;5.862;2022-08-19T09:56:04;101448.97;;;27.03
64790;BMP280;51223;51.816;5.862;2022-08-19T09:58:31;101445.31;;;26.78
64790;BMP280;51223;51.816;5.862;2022-08-19T10:00:58;101462.84;;;26.04
64790;BMP280;51223;51.816;5.862;2022-08-19T10:03:26;101462.09;;;26.39
64790;BMP280;51223;51.816;5.862;2022-08-19T10:05:53;101462.59;;;25.97
64790;BMP280;51223;51.816;5.862;2022-08-19T10:08:22;101474.00;;;26.13
64790;BMP280;51223;51.816;5.862;2022-08-19T10:10:49;101468.78;;;25.43
64790;BMP280;51223;51.816;5.862;2022-08-19T10:13:18;101460.97;;;25.44
64790;BMP280;51223;51.816;5.862;2022-08-19T10:15:52;101454.13;;;27.10
64790;BMP280;51223;51.816;5.862;2022-08-19T10:18:20;101466.13;;;27.63
64790;BMP280;51223;51.816;5.862;2022-08-19T10:20:47;101471.56;;;26.94
64790;BMP280;51223;51.816;5.862;2022-08-19T10:23:14;101473.19;;;26.18
64790;BMP280;51223;51.816;5.862;2022-08-19T10:25:41;101466.13;;;25.67
64790;BMP280;51223;51.816;5.862;2022-08-19T10:28:09;101479.75;;;27.38
64790;BMP280;51223;51.816;5.862;2022-08-19T10:30:40;101471.31;;;26.62
64790;BMP280;51223;51.816;5.862;2022-08-19T10:33:07;101473.34;;;26.31
64790;BMP280;51223;51.816;5.862;2022-08-19T10:35:33;101458.41;;;26.79
64790;BMP280;51223;51.816;5.862;2022-08-19T10:37:59;101465.28;;;26.95
64790;BMP280;51223;51.816;5.862;2022-08-19T10:40:27;101472.50;;;25.21
64790;BMP280;51223;51.816;5.862;2022-08-19T10:42:54;101472.31;;;26.35
64790;BMP280;51223;51.816;5.862;2022-08-19T10:45:22;101465.22;;;26.71
64790;BMP280;51223;51.816;5.862;2022-08-19T10:47:50;101454.88;;;26.92
64790;BMP280;51223;51.816;5.862;2022-08-19T10:50:16;101467.25;;;26.82
64790;BMP280;51223;51.816;5.862;2022-08-19T10:53:04;101452.31;;;27.56
64790;BMP280;51223;51.816;5.862;2022-08-19T10:55:30;101469.78;;;25.68
64790;BMP280;51223;51.816;5.862;2022-08-19T10:58:18;101460.72;;;26.81
64790;BMP280;51223;51.816;5.862;2022-08-19T11:00:54;101458.44;;;26.68
64790;BMP280;51223;51.816;5.862;2022-08-19T11:03:20;101468.28;;;27.08
64790;BMP280;51223;51.816;5.862;2022-08-19T11:05:46;101466.25;;;26.44
64790;BMP280;51223;51.816;5.862;2022-08-19T11:08:14;101459.50;;;25.95
64790;BMP280;51223;51.816;5.862;2022-08-19T11:10:43;101456.75;;;27.14
64790;BMP280;51223;51.816;5.862;2022-08-19T11:13:09;101451.66;;;28.06
64790;BMP280;51223;51.816;5.862;2022-08-19T11:15:35;101448.63;;;28.30
64790;BMP280;51223;51.816;5.862;2022-08-19T11:18:01;101453.16;;;27.02
64790;BMP280;51223;51.816;5.862;2022-08-19T11:20:27;101451.16;;;27.21
64790;BMP280;51223;51.816;5.862;2022-08-19T11:22:52;101435.75;;;27.99
64790;BMP280;51223;51.816;5.862;2022-08-19T11:25:19;101444.72;;;28.91
64790;BMP280;51223;51.816;5.862;2022-08-19T11:27:45;101446.72;;;28.19
64790;BMP280;51223;51.816;5.862;2022-08-19T11:30:13;101444.25;;;27.30
64790;BMP280;51223;51.816;5.862;2022-08-19T11:32:40;101445.31;;;26.78
64790;BMP280;51223;51.816;5.862;2022-08-19T11:35:06;101447.81;;;28.93
64790;BMP280;51223;51.816;5.862;2022-08-19T11:37:32;101443.75;;;29.15
64790;BMP280;51223;51.816;5.862;2022-08-19T11:40:04;101438.47;;;28.87
64790;BMP280;51223;51.816;5.862;2022-08-19T11:42:30;101436.94;;;28.86
64790;BMP280;51223;51.816;5.862;2022-08-19T11:45:15;101434.66;;;26.68
64790;BMP280;51223;51.816;5.862;2022-08-19T11:47:40;101433.44;;;27.36
64790;BMP280;51223;51.816;5.862;2022-08-19T11:50:06;101433.41;;;27.79
64790;BMP280;51223;51.816;5.862;2022-08-19T11:52:33;101433.16;;;29.43
64790;BMP280;51223;51.816;5.862;2022-08-19T11:54:58;101435.03;;;29.02
64790;BMP280;51223;51.816;5.862;2022-08-19T11:57:24;101440.75;;;27.80
64790;BMP280;51223;51.816;5.862;2022-08-19T11:59:51;101427.59;;;28.93
64790;BMP280;51223;51.816;5.862;2022-08-19T12:02:18;101434.50;;;28.13
64790;BMP280;51223;51.816;5.862;2022-08-19T12:04:44;101431.66;;;28.71
64790;BMP280;51223;51.816;5.862;2022-08-19T12:07:10;101427.97;;;27.94
64790;BMP280;51223;51.816;5.862;2022-08-19T12:09:36;101424.59;;;29.38
64790;BMP280;51223;51.816;5.862;2022-08-19T12:12:05;101428.13;;;27.83
64790;BMP280;51223;51.816;5.862;2022-08-19T12:14:31;101431.66;;;28.71
64790;BMP280;51223;51.816;5.862;2022-08-19T12:16:57;101432.63;;;28.16
64790;BMP280;51223;51.816;5.862;2022-08-19T12:19:23;101424.78;;;28.29
64790;BMP280;51223;51.816;5.862;2022-08-19T12:21:51;101427.59;;;29.59
64790;BMP280;51223;51.816;5.862;2022-08-19T12:24:18;101430.41;;;27.47
64790;BMP280;51223;51.816;5.862;2022-08-19T12:26:48;101419.25;;;28.89
64790;BMP280;51223;51.816;5.862;2022-08-19T12:29:15;101430.16;;;29.36
64790;BMP280;51223;51.816;5.862;2022-08-19T12:31:40;101427.75;;;29.27
64790;BMP280;51223;51.816;5.862;2022-08-19T12:34:06;101427.78;;;28.69
64790;BMP280;51223;51.816;5.862;2022-08-19T12:36:32;101426.44;;;27.50
64790;BMP280;51223;51.816;5.862;2022-08-19T12:39:01;101417.03;;;28.96
64790;BMP280;51223;51.816;5.862;2022-08-19T12:41:27;101420.59;;;29.28
64790;BMP280;51223;51.816;5.862;2022-08-19T12:43:53;101422.03;;;29.34
64790;BMP280;51223;51.816;5.862;2022-08-19T12:46:19;101422.00;;;28.69
64790;BMP280;51223;51.816;5.862;2022-08-19T12:48:45;101420.03;;;29.42
64790;BMP280;51223;51.816;5.862;2022-08-19T12:51:15;101412.50;;;30.28
64790;BMP280;51223;51.816;5.862;2022-08-19T12:53:41;101406.75;;;29.73
64790;BMP280;51223;51.816;5.862;2022-08-19T12:56:09;101406.19;;;28.12
64790;BMP280;51223;51.816;5.862;2022-08-19T12:58:36;101402.81;;;29.84
64790;BMP280;51223;51.816;5.862;2022-08-19T13:01:14;101399.59;;;29.74
64790;BMP280;51223;51.816;5.862;2022-08-19T13:03:40;101392.91;;;28.67
64790;BMP280;51223;51.816;5.862;2022-08-19T13:06:07;101399.25;;;29.78
64790;BMP280;51223;51.816;5.862;2022-08-19T13:08:33;101399.22;;;29.57
64790;BMP280;51223;51.816;5.862;2022-08-19T13:11:16;101404.31;;;28.14
64790;BMP280;51223;51.816;5.862;2022-08-19T13:13:44;101394.50;;;30.42
64790;BMP280;51223;51.816;5.862;2022-08-19T13:16:11;101388.72;;;30.42
64790;BMP280;51223;51.816;5.862;2022-08-19T13:18:39;101386.03;;;28.57
64790;BMP280;51223;51.816;5.862;2022-08-19T13:21:06;101388.34;;;28.71
64790;BMP280;51223;51.816;5.862;2022-08-19T13:23:34;101391.56;;;30.35
64790;BMP280;51223;51.816;5.862;2022-08-19T13:26:05;101393.34;;;29.83
64790;BMP280;51223;51.816;5.862;2022-08-19T13:28:32;101392.09;;;29.92
64790;BMP280;51223;51.816;5.862;2022-08-19T13:31:18;101384.53;;;30.51
64790;BMP280;51223;51.816;5.862;2022-08-19T13:34:03;101379.84;;;30.20
64790;BMP280;51223;51.816;5.862;2022-08-19T13:36:29;101369.38;;;30.37
64790;BMP280;51223;51.816;5.862;2022-08-19T13:38:54;101373.28;;;29.05
64790;BMP280;51223;51.816;5.862;2022-08-19T13:41:22;101379.97;;;28.73
64790;BMP280;51223;51.816;5.862;2022-08-19T13:43:47;101370.97;;;29.03
64790;BMP280;51223;51.816;5.862;2022-08-19T13:46:14;101382.22;;;28.35
64790;BMP280;51223;51.816;5.862;2022-08-19T13:48:40;101371.63;;;30.52
64790;BMP280;51223;51.816;5.862;2022-08-19T13:51:07;101379.13;;;30.06
64790;BMP280;51223;51.816;5.862;2022-08-19T13:53:37;101369.91;;;30.85
64790;BMP280;51223;51.816;5.862;2022-08-19T13:56:10;101361.44;;;31.30
64790;BMP280;51223;51.816;5.862;2022-08-19T13:58:37;101364.09;;;30.57
64790;BMP280;51223;51.816;5.862;2022-08-19T14:01:04;101363.94;;;30.62
64790;BMP280;51223;51.816;5.862;2022-08-19T14:03:31;101366.13;;;30.20
64790;BMP280;51223;51.816;5.862;2022-08-19T14:05:58;101360.31;;;30.33